Time;durP1;ratioP1;P1;durP2;ratioP2;P2;SDS_P1;SDS_P2;PMS_P1;PMS_P2;Temp;Humidity;BMP_temperature;BMP_pressure;BME280_temperature;BME280_humidity;BME280_pressure;Samples;Min_cycle;Max_cycle;Signal;HPM_P1;HPM_P2
2022/11/19 00:00:48;;;;;;;124.30;71.75;;;14.10;69.20;;;;;;4590965;19;20070;-21
2022/11/19 00:02:19;;;;;;;133.87;84.03;;;14.00;69.00;;;;;;4590429;19;20034;-21
2022/11/19 00:03:50;;;;;;;123.28;78.82;;;14.00;69.10;;;;;;4588876;19;20491;-21
2022/11/19 00:05:21;;;;;;;90.40;56.67;;;14.10;69.10;;;;;;4591387;19;20018;-22
2022/11/19 00:06:52;;;;;;;93.47;59.42;;;14.00;69.10;;;;;;4592854;19;20003;-22
2022/11/19 00:08:24;;;;;;;108.38;69.97;;;14.00;69.20;;;;;;4591243;19;20041;-21
2022/11/19 00:09:56;;;;;;;127.90;81.38;;;14.10;69.20;;;;;;4592025;19;20486;-22
2022/11/19 00:13:17;;;;;;;66.30;47.30;;;14.00;69.00;;;;;;4591796;19;20385;-22
2022/11/19 00:14:48;;;;;;;72.97;49.55;;;14.00;69.00;;;;;;4591192;19;20448;-22
2022/11/19 00:16:19;;;;;;;60.25;43.75;;;14.00;69.00;;;;;;4591961;19;20003;-21
2022/11/19 00:17:50;;;;;;;60.88;40.65;;;14.00;68.90;;;;;;4592896;19;20003;-22
2022/11/19 00:19:22;;;;;;;59.13;38.30;;;14.00;68.90;;;;;;4591263;19;20362;-21
2022/11/19 00:20:55;;;;;;;61.55;39.03;;;14.00;68.80;;;;;;4591789;19;20006;-22
2022/11/19 00:22:26;;;;;;;60.27;40.00;;;14.00;68.80;;;;;;4590929;19;20449;-22
2022/11/19 00:23:57;;;;;;;73.90;44.30;;;14.00;68.60;;;;;;4590833;19;20433;-22
2022/11/19 00:25:29;;;;;;;121.35;66.40;;;14.00;68.90;;;;;;4592430;19;20006;-23
2022/11/19 00:27:00;;;;;;;84.63;48.87;;;14.00;68.90;;;;;;4590929;19;20017;-21
2022/11/19 00:28:31;;;;;;;79.25;46.38;;;14.00;68.90;;;;;;4589738;19;20452;-22
2022/11/19 00:30:03;;;;;;;60.70;36.88;;;14.00;69.00;;;;;;4591674;19;20010;-21
2022/11/19 00:31:35;;;;;;;49.80;34.37;;;14.00;68.80;;;;;;4592179;19;20022;-21
2022/11/19 00:33:06;;;;;;;48.33;33.42;;;14.00;68.50;;;;;;4592166;19;20475;-21
2022/11/19 00:34:37;;;;;;;46.05;33.20;;;14.00;68.60;;;;;;4591186;19;20026;-21
2022/11/19 00:36:10;;;;;;;46.80;33.35;;;14.00;68.70;;;;;;4591714;19;20027;-23
2022/11/19 00:37:41;;;;;;;54.67;36.57;;;14.00;68.60;;;;;;4591688;19;20483;-21
2022/11/19 00:39:12;;;;;;;56.97;38.83;;;14.00;68.60;;;;;;4591176;19;20476;-21
2022/11/19 00:40:43;;;;;;;53.58;37.08;;;14.00;68.50;;;;;;4591288;19;20003;-21
2022/11/19 00:42:14;;;;;;;50.72;34.72;;;14.00;68.40;;;;;;4591913;19;20010;-22
2022/11/19 00:43:45;;;;;;;52.83;33.70;;;14.00;68.40;;;;;;4590661;19;20002;-21
2022/11/19 00:45:16;;;;;;;51.20;31.77;;;14.00;68.00;;;;;;4590514;19;20019;-21
2022/11/19 00:46:48;;;;;;;64.38;42.08;;;14.00;68.00;;;;;;4590065;19;20021;-21
2022/11/19 00:48:19;;;;;;;94.78;60.17;;;14.00;68.20;;;;;;4591997;19;20003;-22
2022/11/19 00:49:50;;;;;;;46.35;33.90;;;14.00;68.30;;;;;;4591432;19;20021;-21
2022/11/19 00:51:22;;;;;;;46.55;30.75;;;14.00;68.00;;;;;;4592125;19;20010;-21
2022/11/19 00:52:53;;;;;;;47.33;30.33;;;14.00;68.20;;;;;;4592294;19;20505;-21
2022/11/19 00:54:24;;;;;;;42.58;29.92;;;14.00;68.00;;;;;;4591489;19;20007;-21
2022/11/19 00:55:59;;;;;;;43.13;28.52;;;14.00;68.10;;;;;;4591156;19;20019;-23
2022/11/19 00:57:30;;;;;;;44.83;31.40;;;14.00;67.90;;;;;;4591578;19;20014;-22
2022/11/19 00:59:01;;;;;;;58.90;41.63;;;14.00;67.90;;;;;;4592033;19;21059;-23
2022/11/19 01:00:32;;;;;;;67.90;53.92;;;14.00;68.10;;;;;;4591225;19;20010;-21
2022/11/19 01:02:03;;;;;;;55.65;41.72;;;14.00;67.70;;;;;;4591506;19;20029;-21
2022/11/19 01:03:35;;;;;;;46.45;33.70;;;14.00;67.80;;;;;;4590545;19;20025;-20
2022/11/19 01:05:06;;;;;;;41.40;29.10;;;14.00;67.80;;;;;;4590571;19;20017;-21
2022/11/19 01:06:38;;;;;;;40.27;31.33;;;14.00;67.80;;;;;;4590973;19;20011;-21
2022/11/19 01:08:09;;;;;;;42.13;31.33;;;14.00;67.90;;;;;;4591585;19;20499;-21
2022/11/19 01:09:40;;;;;;;40.88;29.42;;;14.00;67.80;;;;;;4590177;19;20018;-21
2022/11/19 01:11:19;;;;;;;114.97;60.47;;;13.90;67.70;;;;;;4590258;19;20017;-21
2022/11/19 01:14:40;;;;;;;67.23;45.63;;;14.00;67.50;;;;;;4590778;19;20425;-22
2022/11/19 01:16:18;;;;;;;48.40;34.13;;;13.90;67.40;;;;;;4591402;19;20445;-22
2022/11/19 01:17:49;;;;;;;40.77;28.83;;;13.90;67.60;;;;;;4588916;19;20477;-21
2022/11/19 01:19:21;;;;;;;34.42;26.77;;;14.00;67.70;;;;;;4589647;19;20472;-21
2022/11/19 01:20:52;;;;;;;35.47;26.70;;;13.90;67.60;;;;;;4591091;19;20025;-21
2022/11/19 01:22:23;;;;;;;30.88;25.23;;;14.00;67.70;;;;;;4590346;19;20425;-22
2022/11/19 01:23:55;;;;;;;27.75;22.85;;;13.90;67.70;;;;;;4589503;19;20014;-21
2022/11/19 01:25:26;;;;;;;31.45;22.25;;;14.00;67.70;;;;;;4590833;19;20033;-21
2022/11/19 01:26:57;;;;;;;39.10;26.73;;;13.90;67.40;;;;;;4590667;19;20021;-21
2022/11/19 01:28:28;;;;;;;62.15;39.85;;;13.90;67.40;;;;;;4591462;19;20006;-21
2022/11/19 01:29:59;;;;;;;81.10;50.80;;;14.00;67.50;;;;;;4591136;19;20360;-20
2022/11/19 01:31:30;;;;;;;66.75;42.47;;;13.90;67.10;;;;;;4589651;19;20021;-22
2022/11/19 01:33:02;;;;;;;60.42;38.28;;;13.90;67.20;;;;;;4590445;19;20025;-21
2022/11/19 01:34:33;;;;;;;53.38;33.65;;;13.90;67.20;;;;;;4590954;19;20467;-22
2022/11/19 01:36:06;;;;;;;52.15;32.33;;;13.90;67.20;;;;;;4590724;19;20033;-21
2022/11/19 01:37:37;;;;;;;44.13;30.53;;;13.90;67.30;;;;;;4589819;19;20021;-21
2022/11/19 01:39:08;;;;;;;40.30;27.77;;;13.90;67.10;;;;;;4588983;19;20875;-21
2022/11/19 01:40:41;;;;;;;46.58;32.95;;;13.90;67.20;;;;;;4589686;19;20475;-22
2022/11/19 01:44:57;;;;;;;45.37;34.43;;;13.90;67.50;;;;;;4590215;19;20455;-22
2022/11/19 01:46:30;;;;;;;46.90;32.10;;;13.90;67.60;;;;;;4589254;19;21059;-22
2022/11/19 01:48:08;;;;;;;48.33;32.20;;;13.90;67.60;;;;;;4589460;19;20413;-22
2022/11/19 01:49:39;;;;;;;32.57;24.30;;;13.90;67.60;;;;;;4589824;19;20436;-22
2022/11/19 01:51:44;;;;;;;31.45;23.02;;;13.90;67.50;;;;;;4590484;19;20520;-22
2022/11/19 01:53:15;;;;;;;25.73;18.77;;;13.90;67.60;;;;;;4588443;19;20002;-22
2022/11/19 01:54:47;;;;;;;27.00;18.33;;;13.90;67.50;;;;;;4587893;19;20451;-22
2022/11/19 01:56:19;;;;;;;30.57;22.53;;;13.90;67.40;;;;;;4588124;19;20011;-21
2022/11/19 01:57:53;;;;;;;31.50;23.30;;;13.90;67.40;;;;;;4588141;19;20766;-21
2022/11/19 01:59:25;;;;;;;31.60;22.87;;;13.90;67.50;;;;;;4588368;19;20018;-21
2022/11/19 02:00:57;;;;;;;28.03;21.67;;;13.90;67.30;;;;;;4587698;19;21102;-21
2022/11/19 02:02:28;;;;;;;29.70;21.70;;;13.90;67.10;;;;;;4587695;19;20034;-22
2022/11/19 02:03:59;;;;;;;29.10;22.00;;;13.90;66.70;;;;;;4587261;19;20338;-22
2022/11/19 02:05:31;;;;;;;31.73;24.33;;;13.90;66.70;;;;;;4588113;19;20409;-21
2022/11/19 02:07:02;;;;;;;34.90;25.23;;;13.90;66.80;;;;;;4587805;19;20433;-21
2022/11/19 02:08:38;;;;;;;35.90;27.58;;;13.90;67.00;;;;;;4587190;19;20369;-21
2022/11/19 02:10:10;;;;;;;38.47;28.53;;;13.90;67.20;;;;;;4588124;19;20011;-22
2022/11/19 02:11:59;;;;;;;41.05;29.95;;;13.90;67.30;;;;;;4587540;19;20125;-22
2022/11/19 02:14:11;;;;;;;42.13;29.90;;;13.90;66.90;;;;;;4587385;19;20010;-21
2022/11/19 02:15:50;;;;;;;41.50;28.58;;;13.90;66.80;;;;;;4587372;19;20421;-21
2022/11/19 02:17:40;;;;;;;34.43;26.27;;;13.90;66.80;;;;;;4587526;19;20011;-23
2022/11/19 02:19:32;;;;;;;38.93;30.93;;;13.90;67.00;;;;;;4587660;19;20011;-21
2022/11/19 02:21:32;;;;;;;32.17;23.88;;;13.90;67.10;;;;;;4587270;19;20449;-22
2022/11/19 02:23:44;;;;;;;35.13;26.10;;;13.90;67.10;;;;;;4611696;19;21062;-22
2022/11/19 02:25:25;;;;;;;35.13;25.30;;;13.90;67.10;;;;;;4612083;19;20475;-22
2022/11/19 02:27:19;;;;;;;35.47;25.07;;;13.90;67.10;;;;;;4613199;19;20013;-22
2022/11/19 02:29:23;;;;;;;38.50;25.90;;;13.90;67.10;;;;;;4611463;19;20408;-22
2022/11/19 02:31:24;;;;;;;38.10;26.40;;;13.90;67.10;;;;;;4610765;19;19998;-22
2022/11/19 02:33:24;;;;;;;35.73;26.10;;;13.90;66.90;;;;;;4609750;19;20443;-23
2022/11/19 02:34:57;;;;;;;38.77;26.93;;;13.90;66.50;;;;;;4610365;19;20520;-23
2022/11/19 02:36:46;;;;;;;38.57;27.67;;;13.90;66.40;;;;;;4609707;19;20844;-22
2022/11/19 02:38:49;;;;;;;38.37;25.87;;;13.90;66.60;;;;;;4609987;19;20489;-22
2022/11/19 02:40:33;;;;;;;35.53;26.70;;;13.90;66.70;;;;;;4609729;19;20789;-22
2022/11/19 02:42:10;;;;;;;33.60;23.53;;;13.90;67.00;;;;;;4609183;19;21072;-22
2022/11/19 02:43:41;;;;;;;36.60;25.53;;;13.90;67.00;;;;;;4610036;19;20003;-22
2022/11/19 02:45:34;;;;;;;33.47;24.35;;;13.90;67.00;;;;;;4610635;19;20432;-22
2022/11/19 02:47:07;;;;;;;35.63;24.93;;;13.90;66.50;;;;;;4609687;19;20361;-21
2022/11/19 02:48:41;;;;;;;34.30;23.63;;;13.90;66.10;;;;;;4609601;19;20457;-21
2022/11/19 02:50:20;;;;;;;35.17;24.00;;;13.90;66.20;;;;;;4609148;19;20440;-22
2022/11/19 02:51:52;;;;;;;31.47;22.63;;;13.90;66.30;;;;;;4609846;19;20408;-21
2022/11/19 02:53:23;;;;;;;31.67;23.45;;;13.90;66.40;;;;;;4609595;19;20495;-22
2022/11/19 02:54:54;;;;;;;32.10;23.52;;;13.90;66.20;;;;;;4609474;19;20018;-21
2022/11/19 02:56:45;;;;;;;32.70;25.23;;;13.90;66.20;;;;;;4609728;19;20010;-22
2022/11/19 03:05:40;;;;;;;29.77;22.07;;;13.90;66.70;;;;;;4609438;19;21023;-22
2022/11/19 03:07:14;;;;;;;31.80;21.27;;;13.90;67.00;;;;;;4609297;19;20433;-22
2022/11/19 03:08:45;;;;;;;30.20;21.30;;;13.90;66.80;;;;;;4609245;19;20562;-22
2022/11/19 03:10:17;;;;;;;28.95;20.02;;;13.90;67.10;;;;;;4609675;19;20433;-22
2022/11/19 03:11:53;;;;;;;27.57;20.73;;;13.90;67.10;;;;;;4609486;19;20015;-22
2022/11/19 03:17:12;;;;;;;27.47;18.70;;;13.90;67.40;;;;;;4611330;19;20325;-22
2022/11/19 03:18:44;;;;;;;26.63;19.47;;;13.90;67.50;;;;;;4612353;19;20456;-21
2022/11/19 03:20:22;;;;;;;30.27;20.10;;;13.90;67.90;;;;;;4610261;19;20498;-23
2022/11/19 03:21:55;;;;;;;32.57;23.20;;;13.90;67.80;;;;;;4609515;19;20779;-22
2022/11/19 03:23:30;;;;;;;35.20;28.57;;;13.90;67.60;;;;;;4610326;19;20494;-22
2022/11/19 03:25:04;;;;;;;32.90;23.70;;;13.90;67.70;;;;;;4611448;19;21007;-22
2022/11/19 03:26:42;;;;;;;32.57;23.23;;;13.90;67.80;;;;;;4610453;19;20475;-22
2022/11/19 03:28:17;;;;;;;32.80;22.93;;;13.90;68.10;;;;;;4610051;19;20428;-22
2022/11/19 03:29:49;;;;;;;28.53;20.60;;;13.90;68.20;;;;;;4610103;19;20448;-22
2022/11/19 03:31:20;;;;;;;31.67;24.47;;;13.90;68.10;;;;;;4610324;19;20474;-21
2022/11/19 03:32:55;;;;;;;36.33;32.35;;;13.90;68.20;;;;;;4609956;19;20479;-21
2022/11/19 03:34:27;;;;;;;34.00;30.03;;;13.90;68.30;;;;;;4594570;19;20098;-21
2022/11/19 03:36:01;;;;;;;34.33;24.73;;;13.90;68.30;;;;;;4592489;19;20473;-21
2022/11/19 03:37:33;;;;;;;34.97;24.13;;;13.90;68.30;;;;;;4592232;19;20437;-22
2022/11/19 03:39:07;;;;;;;36.97;26.67;;;13.90;68.30;;;;;;4592103;19;20828;-21
2022/11/19 03:40:38;;;;;;;42.73;30.83;;;13.90;68.20;;;;;;4592040;19;20447;-22
2022/11/19 03:42:11;;;;;;;38.70;27.50;;;13.90;68.40;;;;;;4591545;19;20464;-22
2022/11/19 03:43:46;;;;;;;37.03;24.80;;;13.90;68.40;;;;;;4592516;19;20464;-21
2022/11/19 03:45:20;;;;;;;48.57;28.00;;;13.90;68.40;;;;;;4591950;19;20433;-21
2022/11/19 03:46:54;;;;;;;50.90;28.60;;;14.00;68.40;;;;;;4592124;19;20453;-21
2022/11/19 03:48:25;;;;;;;53.40;31.23;;;13.90;68.40;;;;;;4592302;19;20069;-21
2022/11/19 03:50:02;;;;;;;66.13;37.55;;;13.90;69.10;;;;;;4592148;19;20441;-23
2022/11/19 03:51:43;;;;;;;50.73;30.20;;;13.90;68.50;;;;;;4591927;19;20007;-22
2022/11/19 03:53:14;;;;;;;48.53;29.17;;;13.90;68.60;;;;;;4591781;19;20479;-22
2022/11/19 03:54:45;;;;;;;41.85;23.23;;;13.90;68.80;;;;;;4591953;19;20462;-21
2022/11/19 03:56:19;;;;;;;34.38;22.58;;;13.90;68.90;;;;;;4592411;19;20006;-22
2022/11/19 03:57:50;;;;;;;27.93;20.90;;;13.90;68.90;;;;;;4591820;19;20051;-22
2022/11/19 03:59:22;;;;;;;31.35;20.98;;;13.90;68.80;;;;;;4591845;19;20437;-22
2022/11/19 04:00:53;;;;;;;;;;;13.90;68.70;;;;;;4592943;19;20021;-21
2022/11/19 04:02:24;;;;;;;30.10;19.23;;;13.90;68.80;;;;;;4592264;19;19911;-21
2022/11/19 04:05:45;;;;;;;24.93;18.13;;;14.00;69.00;;;;;;4592735;19;20015;-22
2022/11/19 04:07:20;;;;;;;23.92;18.10;;;13.90;69.30;;;;;;4591561;19;20475;-22
2022/11/19 04:08:52;;;;;;;24.77;18.30;;;13.90;69.30;;;;;;4593143;19;19995;-22
2022/11/19 04:10:23;;;;;;;23.38;18.13;;;13.90;69.30;;;;;;4593664;19;20425;-22
2022/11/19 04:11:54;;;;;;;25.80;17.83;;;13.90;69.30;;;;;;4592742;19;20061;-21
2022/11/19 04:13:25;;;;;;;25.13;16.92;;;14.00;69.40;;;;;;4592861;19;20015;-22
2022/11/19 04:14:56;;;;;;;23.83;17.33;;;14.00;69.40;;;;;;4591989;19;20014;-22
2022/11/19 04:16:27;;;;;;;22.35;16.95;;;14.00;69.30;;;;;;4592207;19;20007;-22
2022/11/19 04:17:59;;;;;;;25.33;17.27;;;14.00;69.30;;;;;;4590038;19;20011;-22
2022/11/19 04:19:30;;;;;;;22.15;16.67;;;13.90;69.30;;;;;;4591364;19;20007;-22
2022/11/19 04:21:01;;;;;;;21.02;15.70;;;14.00;69.50;;;;;;4592648;19;20448;-22
2022/11/19 04:22:32;;;;;;;22.33;16.38;;;14.00;69.30;;;;;;4591527;19;20029;-22
2022/11/19 04:24:04;;;;;;;21.95;16.83;;;14.00;69.40;;;;;;4592406;19;20019;-22
2022/11/19 04:25:35;;;;;;;20.58;15.98;;;14.00;69.40;;;;;;4592846;19;20062;-22
2022/11/19 04:27:06;;;;;;;23.55;16.67;;;14.00;69.40;;;;;;4591679;19;20039;-23
2022/11/19 04:28:37;;;;;;;20.42;15.57;;;14.00;69.40;;;;;;4591804;19;20014;-22
2022/11/19 04:30:09;;;;;;;20.85;15.35;;;14.00;69.20;;;;;;4591109;19;20015;-22
2022/11/19 04:31:40;;;;;;;20.50;14.93;;;14.00;69.40;;;;;;4591646;19;20010;-21
2022/11/19 04:33:12;;;;;;;22.48;17.45;;;14.00;69.40;;;;;;4591545;19;21005;-22
2022/11/19 04:34:43;;;;;;;23.67;16.85;;;14.00;69.40;;;;;;4592117;19;20015;-22
2022/11/19 04:36:14;;;;;;;22.73;17.70;;;14.00;69.40;;;;;;4591040;19;20011;-21
2022/11/19 04:37:45;;;;;;;24.67;19.38;;;14.00;69.30;;;;;;4592457;19;20066;-23
2022/11/19 04:39:16;;;;;;;25.33;19.08;;;14.00;69.40;;;;;;4593907;19;20019;-22
2022/11/19 04:40:48;;;;;;;28.40;20.58;;;14.00;69.50;;;;;;4592950;19;20017;-22
2022/11/19 04:42:19;;;;;;;28.27;20.55;;;14.00;69.60;;;;;;4593433;19;20361;-22
2022/11/19 04:43:50;;;;;;;22.67;16.60;;;14.00;69.70;;;;;;4592307;19;20029;-21
2022/11/19 04:45:21;;;;;;;38.63;21.88;;;14.00;69.90;;;;;;4590863;19;20014;-22
2022/11/19 04:46:52;;;;;;;34.80;20.92;;;14.00;70.00;;;;;;4593099;19;20018;-21
2022/11/19 04:48:23;;;;;;;46.35;27.92;;;14.00;70.00;;;;;;4592290;19;20013;-22
2022/11/19 04:49:55;;;;;;;57.05;33.13;;;14.00;69.90;;;;;;4592283;19;20062;-22
2022/11/19 04:51:26;;;;;;;47.00;29.67;;;14.00;69.80;;;;;;4592401;19;20007;-22
2022/11/19 04:52:58;;;;;;;48.85;28.95;;;14.00;69.60;;;;;;4594453;19;20058;-21
2022/11/19 04:54:29;;;;;;;33.33;22.57;;;14.00;69.90;;;;;;4592230;19;20499;-21
2022/11/19 04:56:00;;;;;;;34.10;23.08;;;14.00;69.80;;;;;;4594206;19;20445;-22
2022/11/19 04:57:31;;;;;;;32.08;21.65;;;14.00;69.60;;;;;;4594044;19;20038;-22
2022/11/19 04:59:03;;;;;;;34.70;24.60;;;14.00;69.60;;;;;;4591640;19;20014;-22
2022/11/19 05:00:34;;;;;;;34.25;22.17;;;14.00;69.60;;;;;;4593017;19;20528;-22
2022/11/19 05:02:05;;;;;;;31.77;22.92;;;14.00;69.60;;;;;;4593308;19;20357;-21
2022/11/19 05:03:36;;;;;;;30.23;22.08;;;14.00;69.40;;;;;;4591468;19;20021;-22
2022/11/19 05:05:08;;;;;;;27.33;20.50;;;14.00;69.90;;;;;;4594437;19;20007;-22
2022/11/19 05:06:39;;;;;;;28.17;20.17;;;14.00;69.40;;;;;;4593913;19;20031;-22
2022/11/19 05:08:10;;;;;;;29.15;20.10;;;14.00;69.50;;;;;;4590280;19;20033;-23
2022/11/19 05:09:41;;;;;;;27.13;19.50;;;14.00;69.50;;;;;;4593396;19;20092;-22
2022/11/19 05:11:12;;;;;;;30.65;21.77;;;14.00;69.50;;;;;;4593659;19;20499;-24
2022/11/19 05:12:44;;;;;;;27.40;20.58;;;14.00;69.50;;;;;;4589574;19;20003;-22
2022/11/19 05:14:15;;;;;;;27.60;20.08;;;14.00;69.50;;;;;;4593716;19;20011;-21
2022/11/19 05:15:46;;;;;;;27.90;20.13;;;14.00;69.50;;;;;;4591785;19;20010;-22
2022/11/19 05:17:17;;;;;;;27.48;21.15;;;13.90;69.50;;;;;;4590672;19;20015;-22
2022/11/19 05:18:48;;;;;;;27.60;21.10;;;13.90;70.00;;;;;;4590705;19;20019;-21
2022/11/19 05:20:19;;;;;;;30.15;23.25;;;13.90;69.80;;;;;;4591367;19;20010;-22
2022/11/19 05:21:51;;;;;;;32.63;25.70;;;13.90;69.70;;;;;;4592470;19;20018;-22
2022/11/19 05:23:23;;;;;;;42.15;32.38;;;14.00;69.90;;;;;;4589201;19;20010;-22
2022/11/19 05:24:54;;;;;;;37.15;31.58;;;14.00;69.90;;;;;;4590666;19;20031;-21
2022/11/19 05:26:25;;;;;;;42.38;33.35;;;13.90;69.80;;;;;;4591338;19;20345;-22
2022/11/19 05:27:56;;;;;;;41.60;32.17;;;13.90;69.80;;;;;;4590536;19;20452;-21
2022/11/19 05:29:27;;;;;;;39.58;35.15;;;13.90;69.70;;;;;;4590363;19;20048;-21
2022/11/19 05:30:58;;;;;;;41.67;33.72;;;13.90;69.70;;;;;;4591003;19;20479;-22
2022/11/19 05:32:30;;;;;;;39.90;31.38;;;14.00;69.70;;;;;;4590920;19;20014;-23
2022/11/19 05:34:01;;;;;;;35.33;27.10;;;14.00;69.90;;;;;;4591496;19;20011;-22
2022/11/19 05:35:32;;;;;;;36.58;27.58;;;14.00;69.90;;;;;;4590936;19;20020;-22
2022/11/19 05:37:03;;;;;;;40.60;29.40;;;14.00;70.00;;;;;;4590857;19;20017;-26
2022/11/19 05:38:34;;;;;;;37.00;28.13;;;14.00;69.90;;;;;;4590237;19;20364;-22
2022/11/19 05:40:06;;;;;;;34.50;26.45;;;14.00;69.70;;;;;;4586454;19;20018;-24
2022/11/19 05:41:37;;;;;;;37.27;28.40;;;13.90;69.60;;;;;;4588500;19;20018;-21
2022/11/19 05:43:08;;;;;;;32.55;27.65;;;14.00;69.70;;;;;;4588753;19;20501;-21
2022/11/19 05:44:40;;;;;;;37.83;28.60;;;14.00;69.70;;;;;;4588719;19;20018;-22
2022/11/19 05:46:11;;;;;;;41.60;33.33;;;14.10;69.80;;;;;;4588635;19;20018;-21
2022/11/19 05:47:42;;;;;;;36.55;29.33;;;14.10;69.80;;;;;;4589364;19;20026;-21
2022/11/19 05:49:13;;;;;;;37.25;29.38;;;14.10;69.80;;;;;;4589584;19;20078;-22
2022/11/19 05:50:44;;;;;;;35.33;26.75;;;14.10;69.80;;;;;;4589865;19;20018;-22
2022/11/19 05:52:16;;;;;;;33.90;25.85;;;14.10;70.00;;;;;;4591432;19;20011;-22
2022/11/19 05:53:47;;;;;;;31.73;24.25;;;14.10;70.00;;;;;;4589433;19;20096;-22
2022/11/19 05:55:19;;;;;;;30.40;23.77;;;14.10;70.00;;;;;;4588243;19;20014;-23
2022/11/19 05:56:50;;;;;;;32.37;25.40;;;14.10;70.00;;;;;;4589783;19;20519;-22
2022/11/19 05:58:22;;;;;;;30.95;22.67;;;14.10;70.10;;;;;;4590951;19;20899;-22
2022/11/19 05:59:53;;;;;;;28.52;21.55;;;14.10;70.10;;;;;;4590209;19;20018;-27
2022/11/19 06:01:28;;;;;;;31.70;22.80;;;14.10;70.10;;;;;;4590719;19;20015;-22
2022/11/19 06:02:59;;;;;;;28.13;21.47;;;14.10;70.30;;;;;;4589280;19;20014;-21
2022/11/19 06:04:30;;;;;;;29.17;22.30;;;14.10;70.30;;;;;;4590250;19;20532;-26
2022/11/19 06:06:01;;;;;;;31.50;23.33;;;14.10;70.20;;;;;;4589200;19;20418;-22
2022/11/19 06:07:33;;;;;;;26.13;20.45;;;14.00;70.10;;;;;;4590690;19;20363;-24
2022/11/19 06:09:04;;;;;;;27.52;20.00;;;14.10;70.20;;;;;;4587806;19;20352;-23
2022/11/19 06:10:35;;;;;;;27.20;20.75;;;14.00;70.20;;;;;;4589765;19;20477;-21
2022/11/19 06:12:06;;;;;;;25.85;20.70;;;14.10;70.50;;;;;;4589104;19;20030;-25
2022/11/19 06:13:37;;;;;;;27.20;20.08;;;14.10;70.50;;;;;;4590563;19;20018;-23
2022/11/19 06:15:09;;;;;;;26.05;20.17;;;14.10;70.60;;;;;;4589945;19;20011;-22
2022/11/19 06:16:40;;;;;;;26.77;19.83;;;14.10;70.70;;;;;;4592258;19;20017;-22
2022/11/19 06:18:11;;;;;;;25.58;19.00;;;14.10;70.90;;;;;;4591829;19;20026;-22
2022/11/19 06:19:42;;;;;;;24.63;18.83;;;14.00;70.90;;;;;;4591685;19;20014;-22
2022/11/19 06:21:13;;;;;;;25.45;19.45;;;14.00;70.70;;;;;;4589402;19;20021;-22
2022/11/19 06:22:44;;;;;;;26.42;20.63;;;13.60;70.30;;;;;;4587829;19;20018;-22
2022/11/19 06:24:15;;;;;;;29.55;20.58;;;10.80;74.30;;;;;;4590506;19;20017;-21
2022/11/19 06:25:49;;;;;;;32.50;22.58;;;9.30;77.90;;;;;;4590371;19;20010;-25
2022/11/19 06:27:20;;;;;;;32.03;23.00;;;8.50;79.90;;;;;;4589058;19;20014;-22
2022/11/19 06:28:51;;;;;;;28.85;20.30;;;8.10;80.90;;;;;;4590258;19;20603;-24
2022/11/19 06:30:22;;;;;;;30.90;23.20;;;7.80;81.80;;;;;;4588365;19;20010;-26
2022/11/19 06:31:53;;;;;;;29.70;21.27;;;7.60;82.20;;;;;;4587625;19;20359;-21
2022/11/19 06:33:25;;;;;;;30.83;22.55;;;7.60;82.90;;;;;;4588880;19;20383;-21
2022/11/19 06:34:57;;;;;;;31.27;22.33;;;7.50;82.70;;;;;;4587570;19;20011;-22
2022/11/19 06:36:28;;;;;;;32.67;23.58;;;7.40;82.80;;;;;;4588573;19;20560;-26
2022/11/19 06:37:59;;;;;;;28.80;22.02;;;7.40;83.40;;;;;;4589332;19;20006;-22
2022/11/19 06:39:30;;;;;;;31.92;24.25;;;7.30;83.50;;;;;;4589196;19;20019;-21
2022/11/19 06:41:02;;;;;;;37.30;26.45;;;7.20;83.90;;;;;;4588809;19;20007;-22
2022/11/19 06:42:35;;;;;;;35.40;26.15;;;7.20;83.80;;;;;;4589483;19;20018;-21
2022/11/19 06:44:07;;;;;;;35.23;25.93;;;7.20;83.60;;;;;;4589900;19;20006;-21
2022/11/19 06:45:38;;;;;;;37.40;25.77;;;7.10;83.70;;;;;;4587831;19;20576;-22
2022/11/19 06:47:09;;;;;;;35.50;23.73;;;7.10;84.30;;;;;;4590653;19;20479;-21
2022/11/19 06:48:41;;;;;;;34.35;25.80;;;7.10;84.40;;;;;;4588169;19;20503;-23
2022/11/19 06:50:12;;;;;;;34.95;25.10;;;7.00;84.30;;;;;;4587024;19;20017;-21
2022/11/19 06:51:43;;;;;;;37.17;26.08;;;7.00;84.70;;;;;;4589538;19;20345;-21
2022/11/19 06:53:14;;;;;;;33.83;24.55;;;6.90;84.90;;;;;;4587924;19;20912;-24
2022/11/19 06:54:45;;;;;;;35.83;25.35;;;6.90;84.70;;;;;;4587717;19;20006;-21
2022/11/19 06:56:16;;;;;;;36.47;26.85;;;7.00;85.50;;;;;;4474153;19;20014;-26
2022/11/19 06:57:48;;;;;;;39.15;28.83;;;7.30;84.00;;;;;;4588365;19;20042;-22
2022/11/19 06:59:19;;;;;;;35.15;25.35;;;7.20;84.60;;;;;;4589363;19;20066;-25
2022/11/19 07:00:50;;;;;;;33.78;27.42;;;8.10;83.90;;;;;;4589277;19;20070;-20
2022/11/19 07:02:22;;;;;;;37.53;27.92;;;9.40;81.40;;;;;;4587785;19;20025;-21
2022/11/19 07:03:53;;;;;;;37.37;25.57;;;10.30;79.50;;;;;;4589412;19;20444;-22
2022/11/19 07:05:24;;;;;;;35.60;27.58;;;10.90;78.40;;;;;;4590224;19;20441;-22
2022/11/19 07:06:55;;;;;;;36.95;27.23;;;11.30;76.90;;;;;;4588360;19;20049;-21
2022/11/19 07:08:27;;;;;;;41.05;30.92;;;11.60;76.50;;;;;;4588243;19;20010;-22
2022/11/19 07:11:47;;;;;;;42.43;30.60;;;12.10;75.70;;;;;;4593793;19;20011;-21
2022/11/19 07:13:19;;;;;;;43.97;31.15;;;12.30;75.30;;;;;;4593959;19;21035;-23
2022/11/19 07:14:50;;;;;;;33.13;25.58;;;12.40;75.00;;;;;;4594021;19;20018;-23
2022/11/19 07:16:21;;;;;;;36.70;25.80;;;12.50;74.80;;;;;;4594306;19;20456;-23
2022/11/19 07:17:53;;;;;;;35.70;24.98;;;12.60;74.60;;;;;;4594207;19;20017;-22
2022/11/19 07:19:24;;;;;;;;;;;12.70;74.50;;;;;;4593463;19;20022;-22
2022/11/19 07:20:55;;;;;;;41.03;28.57;;;12.80;74.40;;;;;;4593213;19;20246;-22
2022/11/19 07:22:26;;;;;;;41.22;28.08;;;12.80;74.30;;;;;;4591463;19;20509;-22
2022/11/19 07:23:58;;;;;;;43.08;31.20;;;12.90;74.40;;;;;;4592868;19;20369;-21
2022/11/19 07:25:29;;;;;;;40.72;31.30;;;13.00;74.40;;;;;;4592378;19;20042;-21
2022/11/19 07:27:00;;;;;;;35.20;27.70;;;13.00;74.20;;;;;;4594257;19;20025;-22
2022/11/19 07:28:33;;;;;;;38.28;28.83;;;13.10;74.20;;;;;;4596406;19;20007;-23
2022/11/19 07:30:06;;;;;;;36.47;28.00;;;13.10;74.10;;;;;;4593310;19;20010;-21
2022/11/19 07:31:37;;;;;;;28.77;23.10;;;13.20;73.90;;;;;;4595013;19;20457;-21
2022/11/19 07:33:08;;;;;;;29.38;22.33;;;13.30;73.40;;;;;;4595173;19;21023;-21
2022/11/19 07:34:39;;;;;;;23.35;18.80;;;13.40;73.40;;;;;;4594816;19;20081;-21
2022/11/19 07:36:11;;;;;;;22.98;18.90;;;13.40;73.00;;;;;;4595722;19;20010;-21
2022/11/19 07:37:42;;;;;;;23.15;18.38;;;13.50;72.90;;;;;;4592200;19;20048;-22
2022/11/19 07:39:13;;;;;;;23.05;18.13;;;13.50;72.60;;;;;;4588410;19;20050;-23
2022/11/19 07:40:52;;;;;;;24.25;18.92;;;13.60;72.70;;;;;;4591227;19;20011;-24
2022/11/19 07:44:14;;;;;;;24.03;17.30;;;13.70;72.70;;;;;;4593140;19;21020;-22
2022/11/19 07:45:50;;;;;;;23.17;18.77;;;13.70;72.40;;;;;;4594085;19;21008;-23
2022/11/19 07:47:21;;;;;;;24.58;18.30;;;13.70;72.20;;;;;;4593086;19;20489;-23
2022/11/19 07:48:53;;;;;;;21.92;16.95;;;13.80;72.20;;;;;;4593966;19;20025;-22
2022/11/19 07:50:25;;;;;;;17.77;14.40;;;13.80;72.00;;;;;;4594354;19;20483;-22
2022/11/19 07:51:56;;;;;;;17.20;14.02;;;13.90;71.80;;;;;;4592172;19;20478;-21
2022/11/19 07:53:27;;;;;;;17.40;14.88;;;13.90;71.60;;;;;;4593892;19;20094;-21
2022/11/19 07:54:58;;;;;;;17.02;15.27;;;13.90;71.30;;;;;;4595386;19;20011;-23
2022/11/19 07:56:29;;;;;;;19.92;17.45;;;12.00;72.00;;;;;;4592946;19;20048;-22
2022/11/19 07:58:00;;;;;;;19.17;15.07;;;10.00;76.20;;;;;;4593681;19;20022;-21
2022/11/19 07:59:32;;;;;;;18.65;16.20;;;9.00;78.40;;;;;;4594733;19;20031;-24
2022/11/19 08:01:18;;;;;;;20.17;15.90;;;8.50;79.70;;;;;;4592892;19;20018;-21
2022/11/19 08:02:49;;;;;;;23.10;17.03;;;8.20;81.40;;;;;;4591594;19;20017;-22
2022/11/19 08:04:21;;;;;;;21.17;16.25;;;8.00;81.90;;;;;;4593244;19;20774;-21
2022/11/19 08:05:52;;;;;;;23.17;17.80;;;7.90;82.90;;;;;;4593771;19;20009;-21
2022/11/19 08:07:23;;;;;;;18.65;15.23;;;7.80;83.20;;;;;;4590363;19;20018;-22
2022/11/19 08:08:55;;;;;;;21.45;17.15;;;7.80;82.60;;;;;;4592500;19;20015;-22
2022/11/19 08:10:26;;;;;;;22.13;15.93;;;7.70;83.20;;;;;;4593313;19;20116;-21
2022/11/19 08:11:57;;;;;;;20.27;16.90;;;7.70;83.80;;;;;;4592575;19;20014;-22
2022/11/19 08:13:28;;;;;;;20.55;15.23;;;7.70;83.80;;;;;;4592801;19;20021;-21
2022/11/19 08:14:59;;;;;;;18.55;14.15;;;7.70;84.20;;;;;;4591820;19;20010;-22
2022/11/19 08:18:21;;;;;;;18.37;15.17;;;7.60;83.30;;;;;;4593626;19;19998;-22